Latest Weather Observations for St Helens

IDT60801

Issued at 3:31 pm EDT Sunday 5 December 2021 (issued every 10 minutes, with the page automatically refreshed every 10 minutes)

About weather observations | Map of weather stations | Latest weather observations for TAS | Other Formats
Station Details ID: 092120 Name: ST HELENS AERODROME Lat: -41.34 Lon: 148.28 Height: 48.0 m
Data from the previous 72 hours. | See also: Recent months at St Helens
Date/Time
EDT
Temp
°C
App
Temp
°C
Dew
Point
°C
Rel
Hum
%
Delta-T
°C
Wind Press
QNH
hPa
Press
MSL
hPa
Rain since
9am
mm
Dir  Spd
km/h
Gust
km/h
Spd
kts
Gust
kts
05/03:30pm 16.5 10.7 6.1 50 5.0 NE 26 35 14 19 1024.0 1024.0 0.0
05/03:00pm 16.4 10.4 5.4 48 5.3 NE 26 33 14 18 1024.0 1024.0 0.0
05/02:30pm 16.8 10.8 5.4 47 5.5 NE 26 35 14 19 1024.0 1024.0 0.0
05/02:00pm 16.5 11.0 5.8 49 5.2 NE 24 32 13 17 1024.1 1024.1 0.0
05/01:30pm 17.1 12.3 7.2 52 5.0 NE 22 33 12 18 1024.2 1024.2 0.0
05/01:00pm 17.6 13.2 7.4 51 5.1 NNE 20 28 11 15 1024.5 1024.5 0.0
05/12:30pm 17.0 12.5 6.8 51 5.1 NE 20 32 11 17 1024.6 1024.6 0.0
05/12:00pm 16.2 11.1 5.8 50 5.0 ENE 22 32 12 17 1024.8 1024.8 0.0
05/11:30am 16.0 12.2 5.9 51 4.9 ENE 15 24 8 13 1025.0 1025.0 0.0
05/11:00am 14.7 10.8 5.2 53 4.5 NE 15 22 8 12 1025.3 1025.3 0.0
05/10:30am 14.5 11.6 6.3 58 4.0 NE 11 19 6 10 1025.2 1025.2 0.0
05/10:00am 14.4 12.1 5.7 56 4.1 ESE 7 19 4 10 1025.2 1025.2 0.0
05/09:30am 13.7 11.4 5.8 59 3.7 SE 7 15 4 8 1025.3 1025.3 0.0
05/09:00am 13.5 11.3 5.4 58 3.8 E 6 11 3 6 1025.4 1025.4 0.0
05/08:30am 11.9 9.9 6.2 68 2.7 WNW 6 11 3 6 1025.1 1025.1 0.0
05/08:00am 10.6 8.5 6.6 76 1.9 NW 7 11 4 6 1025.0 1025.0 0.0
05/07:30am 9.3 6.9 5.3 76 1.8 NW 7 11 4 6 1024.8 1024.8 0.0
05/07:00am 8.9 6.6 5.5 79 1.5 NW 7 9 4 5 1024.5 1024.5 0.0
05/06:30am 7.5 5.0 4.6 82 1.3 WNW 7 11 4 6 1024.3 1024.3 0.0
05/06:00am 7.5 4.7 5.1 85 1.1 NW 9 11 5 6 1024.0 1024.0 0.0
05/05:30am 7.5 5.3 5.1 85 1.1 WNW 6 11 3 6 1023.5 1023.5 0.0
05/05:00am 7.2 4.0 4.9 85 1.0 NW 11 15 6 8 1023.2 1023.2 0.0
05/04:30am 7.0 3.4 5.0 87 0.9 NW 13 15 7 8 1023.0 1023.0 0.0
05/04:00am 7.7 5.2 4.8 82 1.3 NW 7 9 4 5 1022.8 1022.8 0.0
05/03:30am 8.0 5.1 4.9 81 1.4 NW 9 13 5 7 1022.8 1022.8 0.0
05/03:00am 8.4 6.6 5.3 81 1.4 W 4 9 2 5 1022.8 1022.8 0.0
05/02:30am 8.9 7.0 4.9 76 1.8 WSW 4 9 2 5 1022.8 1022.8 0.0
05/02:00am 9.0 6.4 3.2 67 2.5 SW 6 13 3 7 1022.8 1022.8 0.0
05/01:30am 8.7 5.7 2.3 64 2.7 S 7 11 4 6 1022.8 1022.8 0.0
05/01:00am 8.3 4.9 2.1 65 2.6 S 9 15 5 8 1022.6 1022.6 0.0
05/12:30am 8.3 5.3 2.3 66 2.5 SSW 7 11 4 6 1022.6 1022.6 0.0
05/12:00am 8.5 5.2 2.3 65 2.6 SSW 9 13 5 7 1022.5 1022.5 0.0
 
Date/Time
EDT
Temp
°C
App
Temp
°C
Dew
Point
°C
Rel
Hum
%
Delta-T
°C
Wind Press
QNH
hPa
Press
MSL
hPa
Rain since
9am
mm
Dir  Spd
km/h
Gust
km/h
Spd
kts
Gust
kts
04/11:30pm 8.6 5.6 2.2 64 2.7 SSW 7 9 4 5 1022.2 1022.2 0.0
04/11:00pm 9.0 6.1 2.6 64 2.7 S 7 9 4 5 1021.9 1021.9 0.0
04/10:30pm 10.1 6.9 3.2 62 3.0 S 9 15 5 8 1021.7 1021.7 0.0
04/10:00pm 10.8 7.7 3.6 61 3.2 S 9 20 5 11 1021.5 1021.5 0.0
04/09:30pm 11.3 7.4 3.3 58 3.5 SSE 13 26 7 14 1021.1 1021.0 0.0
04/09:00pm 11.6 7.7 3.4 57 3.6 SSE 13 26 7 14 1020.6 1020.5 0.0
04/08:30pm 11.7 7.0 3.2 56 3.7 SSE 17 28 9 15 1020.3 1020.2 0.0
04/08:00pm 12.2 7.1 2.9 53 4.1 SSE 19 32 10 17 1019.4 1019.3 0.0
04/07:30pm 12.6 7.4 3.6 54 4.0 SSE 20 39 11 21 1018.7 1018.6 0.0
04/07:00pm 13.1 7.2 4.0 54 4.1 SSE 24 41 13 22 1018.0 1017.9 0.0
04/06:30pm 13.6 7.3 3.9 52 4.4 SSE 26 46 14 25 1017.3 1017.2 0.0
04/06:09pm 13.5 6.7 3.3 50 4.6 SSE 28 46 15 25 1016.7 1016.6 0.0
04/06:00pm 14.0 7.9 4.9 54 4.2 SSE 26 50 14 27 1016.8 1016.7 0.0
04/05:44pm 14.3 7.9 5.1 54 4.3 SSE 28 46 15 25 1016.5 1016.4 0.0
04/05:30pm 14.2 7.5 3.9 50 4.7 SSE 28 44 15 24 1016.4 1016.3 0.0
04/05:04pm 14.0 7.3 3.8 50 4.6 SSE 28 50 15 27 1015.9 1015.8 0.0
04/05:00pm 14.6 8.7 3.7 48 5.0 SSE 24 48 13 26 1016.0 1015.9 0.0
04/04:30pm 14.8 7.8 4.2 49 4.9 SSE 30 52 16 28 1015.6 1015.5 0.0
04/04:02pm 15.2 8.8 5.4 52 4.7 SSE 28 50 15 27 1015.2 1015.1 0.0
04/04:00pm 14.4 8.1 3.8 49 4.8 SSE 26 50 14 27 1015.2 1015.1 0.0
04/03:30pm 14.1 6.8 4.4 52 4.5 SSE 32 56 17 30 1014.7 1014.6 0.0
04/03:00pm 14.5 7.6 4.8 52 4.5 SSE 30 50 16 27 1014.4 1014.3 0.0
04/02:37pm 15.2 8.8 5.4 52 4.7 SSE 28 50 15 27 1014.1 1014.0 0.0
04/02:30pm 15.4 9.8 5.3 51 4.8 SSE 24 37 13 20 1014.0 1013.9 0.0
04/02:00pm 14.7 10.1 6.5 58 4.0 SE 20 37 11 20 1014.1 1014.0 0.0
04/01:30pm 14.3 9.9 7.4 63 3.4 SE 20 50 11 27 1014.0 1013.9 0.0
04/01:00pm 16.5 13.1 7.7 56 4.4 SE 15 26 8 14 1013.3 1013.2 0.0
04/12:30pm 15.0 11.4 8.3 64 3.4 SSE 17 30 9 16 1013.4 1013.3 0.0
04/12:00pm 14.4 11.4 7.5 63 3.4 S 13 24 7 13 1013.3 1013.2 0.0
04/11:30am 13.7 9.6 7.7 67 3.0 SSW 19 33 10 18 1012.7 1012.6 0.0
04/11:00am 16.9 12.5 7.3 53 4.8 S 20 33 11 18 1012.0 1011.9 0.0
04/10:30am 16.5 12.3 5.5 48 5.3 SSW 17 33 9 18 1011.5 1011.4 0.0
04/10:00am 16.8 13.7 7.2 53 4.8 W 13 20 7 11 1010.8 1010.7 0.0
04/09:30am 17.2 13.8 7.8 54 4.8 W 15 33 8 18 1010.7 1010.6 0.0
04/09:00am 15.9 12.0 6.9 55 4.4 WNW 17 35 9 19 1010.7 1010.6 0.0
04/08:30am 15.2 11.0 7.3 59 3.9 NW 19 33 10 18 1010.6 1010.5 0.0
04/08:00am 14.3 10.0 7.1 62 3.5 NW 19 35 10 19 1010.7 1010.6 0.0
04/07:30am 13.6 10.0 6.9 64 3.2 NW 15 28 8 15 1010.4 1010.3 0.0
04/07:00am 13.0 9.1 7.0 67 2.9 WNW 17 28 9 15 1010.6 1010.5 0.0
04/06:30am 12.1 8.4 6.2 67 2.8 WNW 15 24 8 13 1010.7 1010.6 0.0
04/06:00am 10.3 8.0 5.7 73 2.1 W 7 15 4 8 1010.7 1010.6 0.0
04/05:30am 9.9 7.1 5.3 73 2.1 NW 9 17 5 9 1010.6 1010.5 0.0
04/05:00am 9.1 7.0 3.7 69 2.4 SSW 4 9 2 5 1010.7 1010.6 0.0
04/04:30am 10.5 7.2 4.6 67 2.7 NW 11 19 6 10 1010.5 1010.4 0.0
04/04:00am 10.8 6.7 4.5 65 2.8 WNW 15 24 8 13 1010.6 1010.5 0.0
04/03:30am 10.6 7.3 4.7 67 2.7 W 11 19 6 10 1010.6 1010.5 0.0
04/03:00am 11.3 7.6 4.5 63 3.1 W 13 20 7 11 1010.6 1010.5 0.0
04/02:30am 11.4 7.3 4.6 63 3.1 W 15 24 8 13 1010.7 1010.6 0.0
04/02:00am 11.6 8.1 5.3 65 2.9 W 13 20 7 11 1010.6 1010.5 0.0
04/01:30am 11.2 8.3 6.7 74 2.1 WSW 11 20 6 11 1010.9 1010.8 0.0
04/01:00am 11.1 8.8 7.4 78 1.8 WSW 9 15 5 8 1011.3 1011.2 0.0
04/12:30am 11.6 9.3 9.0 84 1.3 NW 11 17 6 9 1011.5 1011.4 0.0
04/12:00am 12.4 10.0 8.5 77 1.9 NNW 11 15 6 8 1011.9 1011.8 0.0
 
Date/Time
EDT
Temp
°C
App
Temp
°C
Dew
Point
°C
Rel
Hum
%
Delta-T
°C
Wind Press
QNH
hPa
Press
MSL
hPa
Rain since
9am
mm
Dir  Spd
km/h
Gust
km/h
Spd
kts
Gust
kts
03/11:30pm 13.1 9.6 8.8 75 2.2 N 17 22 9 12 1012.4 1012.3 0.0
03/11:00pm 13.3 9.8 8.6 73 2.4 NNW 17 24 9 13 1012.7 1012.6 0.0
03/10:30pm 13.5 10.4 8.8 73 2.4 NNW 15 22 8 12 1013.0 1012.9 0.0
03/10:00pm 13.7 10.6 9.0 73 2.4 NNW 15 24 8 13 1013.2 1013.1 0.0
03/09:30pm 13.8 10.5 8.0 68 2.9 NNW 15 24 8 13 1013.4 1013.3 0.0
03/09:00pm 14.3 10.9 7.6 64 3.3 NNW 15 20 8 11 1013.7 1013.6 0.0
03/08:30pm 14.8 10.5 7.1 60 3.8 N 19 26 10 14 1013.9 1013.8 0.0
03/08:00pm 15.4 11.1 7.2 58 4.1 N 19 26 10 14 1014.1 1014.0 0.0
03/07:30pm 16.2 12.0 8.2 59 4.1 N 20 32 11 17 1014.3 1014.2 0.0
03/07:00pm 17.0 13.6 9.2 60 4.1 N 17 30 9 16 1014.5 1014.4 0.0
03/06:30pm 16.2 12.5 10.3 68 3.1 NNE 20 32 11 17 1014.6 1014.5 0.0
03/06:00pm 16.6 13.2 10.7 68 3.1 NNE 19 28 10 15 1015.0 1014.9 0.0
03/05:30pm 16.8 13.9 11.1 69 3.1 NNE 17 24 9 13 1015.3 1015.2 0.0
03/05:00pm 17.0 13.4 10.6 66 3.4 NE 20 32 11 17 1015.6 1015.5 0.0
03/04:30pm 16.0 12.3 10.1 68 3.1 NE 20 28 11 15 1016.0 1015.9 0.0
03/04:00pm 16.5 12.7 9.2 62 3.8 NE 19 26 10 14 1016.3 1016.2 0.0
03/03:30pm 15.8 12.6 10.1 69 3.0 NE 17 22 9 12 1016.6 1016.5 0.0
03/03:00pm 15.7 12.8 9.6 67 3.2 ENE 15 24 8 13 1016.8 1016.7 0.0
03/02:30pm 16.2 12.7 10.3 68 3.1 ENE 19 26 10 14 1016.9 1016.8 0.0
03/02:00pm 17.1 14.0 10.2 64 3.7 E 17 28 9 15 1016.8 1016.7 0.0
03/01:30pm 16.2 14.3 10.5 69 3.0 E 11 20 6 11 1017.1 1017.0 0.0
03/01:00pm 17.3 14.6 10.4 64 3.7 E 15 24 8 13 1016.9 1016.8 0.0
03/12:30pm 16.2 13.9 10.5 69 3.0 ESE 13 20 7 11 1017.1 1017.0 0.0
03/12:00pm 15.6 13.4 9.3 66 3.2 SE 11 20 6 11 1017.3 1017.2 0.0
03/11:30am 15.9 12.9 9.1 64 3.5 SE 15 28 8 15 1017.2 1017.1 0.0
03/11:00am 16.2 13.2 7.9 58 4.2 SE 13 26 7 14 1017.3 1017.2 0.0
03/10:30am 16.5 12.9 8.2 58 4.2 SE 17 32 9 17 1017.1 1017.0 0.0
03/10:00am 16.7 13.6 8.9 60 4.0 SSE 15 26 8 14 1017.1 1017.0 0.0
03/09:30am 15.3 12.8 8.3 63 3.5 SSE 11 22 6 12 1016.9 1016.8 0.0
03/09:00am 15.2 12.7 8.2 63 3.5 SSE 11 22 6 12 1016.6 1016.5 2.0
03/08:30am 14.9 11.6 8.2 64 3.4 SSE 15 26 8 14 1016.3 1016.2 2.0
03/08:00am 15.6 12.7 9.7 68 3.1 SSE 15 28 8 15 1015.7 1015.6 2.0
03/07:30am 14.2 11.2 9.2 72 2.6 SSE 15 24 8 13 1015.5 1015.4 2.0
03/07:00am 14.4 11.8 10.8 79 1.9 SSE 15 26 8 14 1015.0 1014.9 2.0
03/06:36am 14.4 12.5 11.7 84 1.5 SSE 13 22 7 12 1014.7 1014.6 2.0
03/06:30am 14.5 12.8 12.4 87 1.1 S 13 20 7 11 1014.6 1014.5 2.0
03/06:00am 14.5 12.9 12.9 90 0.9 SE 13 20 7 11 1013.9 1013.8 2.0
03/05:34am 14.4 12.7 12.4 88 1.1 SSE 13 24 7 13 1013.4 1013.3 2.0
03/05:30am 14.4 12.7 12.4 88 1.1 SSE 13 22 7 12 1013.3 1013.2 2.0
03/05:19am 14.4 12.7 12.6 89 1.0 SSE 13 22 7 12 1013.1 1013.0 2.0
03/05:08am 14.3 12.4 12.9 91 0.8 SSE 15 22 8 12 1012.9 1012.8 2.0
03/05:05am 14.3 12.4 12.9 91 0.8 SSE 15 22 8 12 1012.9 1012.8 2.0
03/05:00am 14.3 12.4 13.0 92 0.7 SSE 15 26 8 14 1012.8 1012.7 2.0
03/04:30am 14.2 11.6 13.1 93 0.6 S 19 35 10 19 1012.3 1012.2 2.0
03/04:00am 14.6 12.1 13.6 94 0.6 S 19 35 10 19 1011.7 1011.6 2.0
03/03:40am 14.6 12.5 13.6 94 0.6 S 17 32 9 17 1011.6 1011.5 2.0
03/03:30am 14.5 12.5 12.7 89 1.0 SSE 15 24 8 13 1011.7 1011.6 2.0
03/03:00am 16.0 15.4 12.2 78 2.1 ESE 7 11 4 6 1011.3 1011.2 2.0
03/02:30am 17.1 15.4 12.4 74 2.6 WSW 13 28 7 15 1010.8 1010.7 2.0
03/02:00am 16.5 15.6 12.5 77 2.2 WSW 9 15 5 8 1010.5 1010.4 2.0
03/01:30am 17.0 15.8 12.9 77 2.3 W 11 20 6 11 1010.6 1010.5 2.0
03/01:00am 17.4 15.0 12.7 74 2.6 W 17 32 9 17 1010.5 1010.4 2.0
03/12:30am 17.5 15.1 12.6 73 2.7 W 17 30 9 16 1010.5 1010.4 2.0
03/12:00am 17.4 14.7 12.9 75 2.5 W 19 28 10 15 1010.7 1010.6 2.0
 
Date/Time
EDT
Temp
°C
App
Temp
°C
Dew
Point
°C
Rel
Hum
%
Delta-T
°C
Wind Press
QNH
hPa
Press
MSL
hPa
Rain since
9am
mm
Dir  Spd
km/h
Gust
km/h
Spd
kts
Gust
kts
02/11:30pm 16.9 14.7 13.4 80 2.0 W 17 30 9 16 1011.9 1011.8 2.0
02/11:00pm 16.6 14.9 13.7 83 1.6 W 15 26 8 14 1012.5 1012.4 2.0
02/10:30pm 16.4 13.0 13.7 84 1.5 WNW 24 37 13 20 1013.2 1013.1 1.8
02/10:00pm 17.8 15.0 14.3 80 2.0 WNW 22 39 12 21 1013.3 1013.2 0.8
02/09:35pm 18.5 14.4 13.8 74 2.7 WNW 28 52 15 28 1012.9 1012.8 0.4
02/09:30pm 19.2 17.6 16.1 82 1.9 NW 19 35 10 19 1012.7 1012.6 0.2
02/09:00pm 19.2 17.6 15.9 81 2.0 N 19 26 10 14 1010.9 1010.8 0.0
02/08:30pm 18.0 16.4 16.0 88 1.2 N 19 24 10 13 1010.7 1010.6 0.0
02/08:00pm 18.2 16.3 15.8 86 1.4 NNE 20 30 11 16 1009.8 1009.7 0.0
02/07:30pm 18.6 16.6 15.5 82 1.8 NNE 20 28 11 15 1009.9 1009.8 0.0
02/07:00pm 18.6 16.6 15.5 82 1.8 NNE 20 30 11 16 1010.3 1010.2 0.0
02/06:30pm 19.6 16.7 16.1 80 2.1 N 26 39 14 21 1010.6 1010.5 0.0
02/06:00pm 20.2 16.9 16.0 77 2.5 N 28 43 15 23 1010.4 1010.3 0.0
02/05:30pm 19.4 16.9 16.2 82 1.9 NNE 24 39 13 21 1010.6 1010.5 0.0
02/05:00pm 19.8 17.2 16.8 83 1.8 NNE 26 43 14 23 1010.9 1010.8 0.0
02/04:30pm 20.2 16.9 16.0 77 2.5 NNE 28 37 15 20 1011.1 1011.0 0.0
02/04:00pm 19.9 16.3 16.3 80 2.2 NNE 30 43 16 23 1011.4 1011.3 0.0

Other formats

Comma delimited format used in spreadsheet applications
http://www.bom.gov.au/fwo/IDT60801/IDT60801.95981.axf

JavaScript Object Notation format (JSON) in row-major order
http://www.bom.gov.au/fwo/IDT60801/IDT60801.95981.json

Data quality

Most of these data are generated automatically and are frequently updated. Quality checks on data are not normally performed. It is possible for incorrect values to appear. Refer to information at About Latest Weather Observations and please check the disclaimer before using these data.